Time;durP1;ratioP1;P1;durP2;ratioP2;P2;SDS_P1;SDS_P2;PMS_P1;PMS_P2;Temp;Humidity;BMP_temperature;BMP_pressure;BME280_temperature;BME280_humidity;BME280_pressure;Samples;Min_cycle;Max_cycle;Signal;HPM_P1;HPM_P2
2024/02/02 00:00:07;;;;;;;4.10;3.50;;;;;;;;;;5032482;28;20233;-80
2024/02/02 00:02:40;;;;;;;3.87;3.57;;;;;;;;;;5032575;28;20201;-81
2024/02/02 00:05:08;;;;;;;3.63;3.33;;;;;;;;;;5031459;28;20201;-84
2024/02/02 00:07:34;;;;;;;4.73;3.40;;;;;;;;;;5016063;28;20217;-80
2024/02/02 00:10:04;;;;;;;3.20;2.90;;;;;;;;;;5039696;28;20269;-79
2024/02/02 00:12:32;;;;;;;3.70;3.00;;;;;;;;;;5033716;28;20674;-80
2024/02/02 00:15:07;;;;;;;3.70;3.07;;;;;;;;;;5047975;28;20208;-82
2024/02/02 00:17:35;;;;;;;2.70;2.40;;;;;;;;;;5031863;28;20286;-79
2024/02/02 00:20:03;;;;;;;3.20;2.57;;;;;;;;;;5030428;28;20241;-81
2024/02/02 00:22:39;;;;;;;2.67;2.47;;;;;;;;;;5033715;28;20191;-82
2024/02/02 00:25:12;;;;;;;2.60;2.37;;;;;;;;;;5014074;28;20202;-79
2024/02/02 00:27:45;;;;;;;3.10;2.50;;;;;;;;;;5031827;28;20217;-82
2024/02/02 00:30:13;;;;;;;3.07;2.50;;;;;;;;;;5028933;28;20218;-78
2024/02/02 00:32:44;;;;;;;3.70;2.70;;;;;;;;;;5031811;28;20204;-80
2024/02/02 00:35:13;;;;;;;2.77;2.43;;;;;;;;;;5019624;28;20194;-80
2024/02/02 00:37:40;;;;;;;3.50;2.60;;;;;;;;;;5015562;28;20213;-80
2024/02/02 00:40:11;;;;;;;2.90;2.70;;;;;;;;;;5035454;28;20249;-78
2024/02/02 00:42:38;;;;;;;3.13;2.80;;;;;;;;;;5017652;28;20245;-78
2024/02/02 00:45:09;;;;;;;3.10;2.80;;;;;;;;;;5039996;28;20209;-81
2024/02/02 00:47:38;;;;;;;3.20;2.87;;;;;;;;;;5035600;28;20291;-82
2024/02/02 00:50:12;;;;;;;3.07;2.77;;;;;;;;;;5035658;28;20186;-79
2024/02/02 00:52:39;;;;;;;3.50;2.70;;;;;;;;;;5037787;28;20190;-80
2024/02/02 00:55:06;;;;;;;4.60;3.10;;;;;;;;;;5056406;28;20193;-78
2024/02/02 00:57:33;;;;;;;3.30;3.00;;;;;;;;;;5041220;28;20240;-80
2024/02/02 01:00:05;;;;;;;3.27;2.80;;;;;;;;;;5021638;28;20233;-79
2024/02/02 01:02:33;;;;;;;3.57;3.27;;;;;;;;;;5063652;28;20252;-80
2024/02/02 01:04:59;;;;;;;3.53;3.10;;;;;;;;;;5062849;28;20186;-78
2024/02/02 01:07:29;;;;;;;3.83;3.17;;;;;;;;;;5026315;28;20210;-80
2024/02/02 01:09:58;;;;;;;3.10;2.53;;;;;;;;;;5050481;28;20284;-80
2024/02/02 01:12:27;;;;;;;2.70;2.50;;;;;;;;;;5045680;28;20255;-80
2024/02/02 01:14:56;;;;;;;3.90;2.43;;;;;;;;;;5046108;28;20638;-80
2024/02/02 01:17:23;;;;;;;3.10;2.70;;;;;;;;;;5018253;28;20226;-79
2024/02/02 01:19:49;;;;;;;4.87;2.50;;;;;;;;;;5054327;28;20220;-80
2024/02/02 01:22:19;;;;;;;3.67;2.63;;;;;;;;;;5056364;28;20268;-81
2024/02/02 01:24:53;;;;;;;2.83;2.53;;;;;;;;;;5037855;28;20204;-80
2024/02/02 01:27:24;;;;;;;3.27;2.70;;;;;;;;;;5051368;28;20205;-79
2024/02/02 01:29:51;;;;;;;2.70;2.50;;;;;;;;;;5055152;28;20197;-81
2024/02/02 01:32:17;;;;;;;2.60;2.40;;;;;;;;;;5036984;28;20308;-81
2024/02/02 01:34:44;;;;;;;3.50;2.80;;;;;;;;;;5054940;28;20666;-80
2024/02/02 01:37:20;;;;;;;2.80;2.60;;;;;;;;;;5038769;28;20219;-79
2024/02/02 01:39:48;;;;;;;4.10;2.90;;;;;;;;;;5037138;28;20193;-79
2024/02/02 01:42:17;;;;;;;3.10;2.80;;;;;;;;;;5052199;28;20225;-81
2024/02/02 01:44:48;;;;;;;5.90;3.17;;;;;;;;;;5054745;28;20280;-82
2024/02/02 01:47:18;;;;;;;3.37;2.97;;;;;;;;;;5060448;28;20281;-81
2024/02/02 01:49:48;;;;;;;3.63;3.00;;;;;;;;;;5046174;28;20248;-82
2024/02/02 01:52:19;;;;;;;4.10;3.20;;;;;;;;;;5060426;28;20182;-79
2024/02/02 01:54:46;;;;;;;4.77;2.93;;;;;;;;;;5054754;28;20759;-80
2024/02/02 01:57:18;;;;;;;4.17;2.87;;;;;;;;;;5036799;28;20220;-80
2024/02/02 01:59:46;;;;;;;4.10;3.63;;;;;;;;;;5054171;28;20185;-79
2024/02/02 02:02:13;;;;;;;4.10;3.63;;;;;;;;;;5054599;28;20182;-79
2024/02/02 02:04:42;;;;;;;4.13;3.73;;;;;;;;;;5054013;28;20202;-80
2024/02/02 02:07:09;;;;;;;4.27;3.50;;;;;;;;;;5056523;28;20197;-80
2024/02/02 02:09:43;;;;;;;3.97;3.00;;;;;;;;;;5048353;28;20685;-80
2024/02/02 02:12:12;;;;;;;5.80;2.80;;;;;;;;;;5053517;28;20190;-80
2024/02/02 02:14:39;;;;;;;3.50;2.77;;;;;;;;;;5053847;28;20198;-83
2024/02/02 02:17:08;;;;;;;4.40;2.60;;;;;;;;;;5053951;28;20217;-80
2024/02/02 02:19:36;;;;;;;3.17;2.20;;;;;;;;;;5035549;28;20190;-79
2024/02/02 02:22:03;;;;;;;3.40;2.10;;;;;;;;;;5053172;28;20201;-82
2024/02/02 02:24:30;;;;;;;3.40;2.13;;;;;;;;;;5052213;28;20208;-79
2024/02/02 02:26:59;;;;;;;3.73;2.00;;;;;;;;;;5060588;28;20196;-80
2024/02/02 02:29:26;;;;;;;3.03;2.10;;;;;;;;;;5058699;28;20267;-81
2024/02/02 02:31:54;;;;;;;3.90;2.10;;;;;;;;;;5035508;28;20210;-82
2024/02/02 02:34:27;;;;;;;3.97;2.10;;;;;;;;;;5034728;28;20209;-80
2024/02/02 02:36:54;;;;;;;3.73;2.07;;;;;;;;;;5035406;28;20210;-80
2024/02/02 02:39:25;;;;;;;4.07;2.17;;;;;;;;;;5058494;28;20201;-81
2024/02/02 02:41:52;;;;;;;3.50;2.43;;;;;;;;;;5059169;28;20273;-83
2024/02/02 02:44:19;;;;;;;2.83;2.10;;;;;;;;;;5043076;28;20198;-80
2024/02/02 02:46:51;;;;;;;3.20;2.27;;;;;;;;;;5057281;28;20192;-79
2024/02/02 02:49:18;;;;;;;4.37;2.87;;;;;;;;;;5053076;28;20206;-80
2024/02/02 02:51:48;;;;;;;3.97;2.67;;;;;;;;;;5053020;28;20239;-80
2024/02/02 02:54:19;;;;;;;3.23;2.80;;;;;;;;;;5059028;28;20237;-80
2024/02/02 02:56:46;;;;;;;5.20;2.80;;;;;;;;;;5055745;28;20227;-82
2024/02/02 02:59:16;;;;;;;5.13;2.40;;;;;;;;;;5052918;28;20273;-80
2024/02/02 03:01:46;;;;;;;4.77;2.47;;;;;;;;;;5055010;28;20657;-79
2024/02/02 03:04:15;;;;;;;3.37;2.50;;;;;;;;;;5031121;28;20204;-80
2024/02/02 03:06:48;;;;;;;3.53;2.37;;;;;;;;;;5052449;28;20277;-80
2024/02/02 03:09:18;;;;;;;4.77;2.73;;;;;;;;;;5053929;28;20310;-80
2024/02/02 03:11:44;;;;;;;6.47;2.67;;;;;;;;;;5053631;28;20201;-80
2024/02/02 03:14:11;;;;;;;4.90;2.60;;;;;;;;;;5052531;28;20194;-82
2024/02/02 03:16:41;;;;;;;3.93;2.37;;;;;;;;;;5049538;28;20201;-80
2024/02/02 03:19:11;;;;;;;4.40;2.70;;;;;;;;;;5053439;28;20248;-80
2024/02/02 03:21:39;;;;;;;5.07;2.70;;;;;;;;;;5063494;28;20217;-80
2024/02/02 03:24:08;;;;;;;5.33;2.80;;;;;;;;;;5018554;28;20642;-80
2024/02/02 03:26:35;;;;;;;5.90;3.03;;;;;;;;;;5034825;28;20202;-83
2024/02/02 03:29:03;;;;;;;4.07;2.87;;;;;;;;;;5051864;28;20209;-79
2024/02/02 03:31:32;;;;;;;5.10;3.00;;;;;;;;;;5028474;28;20206;-79
2024/02/02 03:34:01;;;;;;;4.90;3.40;;;;;;;;;;5052209;28;20253;-79
2024/02/02 03:36:28;;;;;;;3.83;2.93;;;;;;;;;;5058813;28;20228;-81
2024/02/02 03:38:54;;;;;;;5.60;2.90;;;;;;;;;;5040676;28;20205;-80
2024/02/02 03:41:21;;;;;;;6.43;3.33;;;;;;;;;;5061243;28;20193;-79
2024/02/02 03:43:49;;;;;;;6.17;2.97;;;;;;;;;;5058136;28;20198;-79
2024/02/02 03:46:19;;;;;;;4.67;2.90;;;;;;;;;;5051955;28;20216;-80
2024/02/02 03:48:49;;;;;;;3.87;2.63;;;;;;;;;;5047995;28;20221;-79
2024/02/02 03:51:21;;;;;;;5.93;2.73;;;;;;;;;;5041545;28;20185;-80
2024/02/02 03:53:49;;;;;;;5.47;2.80;;;;;;;;;;5032663;28;20457;-81
2024/02/02 03:56:18;;;;;;;5.80;2.60;;;;;;;;;;5036484;28;20190;-80
2024/02/02 03:58:46;;;;;;;4.03;2.30;;;;;;;;;;5032364;28;20206;-79
2024/02/02 04:01:15;;;;;;;4.23;2.60;;;;;;;;;;5032031;28;20190;-82
2024/02/02 04:03:43;;;;;;;6.20;2.93;;;;;;;;;;5017849;28;20192;-80
2024/02/02 04:06:11;;;;;;;5.33;2.80;;;;;;;;;;5028329;28;20213;-80
2024/02/02 04:08:38;;;;;;;4.57;2.70;;;;;;;;;;5018385;28;20218;-79
2024/02/02 04:11:09;;;;;;;3.70;2.50;;;;;;;;;;5014504;28;20229;-80
2024/02/02 04:13:42;;;;;;;6.90;3.13;;;;;;;;;;5036658;28;20268;-82
2024/02/02 04:16:11;;;;;;;5.57;3.03;;;;;;;;;;5021205;28;20235;-78
2024/02/02 04:18:38;;;;;;;6.23;2.73;;;;;;;;;;5038733;28;20244;-79
2024/02/02 04:21:07;;;;;;;4.13;2.70;;;;;;;;;;5038548;28;20186;-80
2024/02/02 04:23:38;;;;;;;5.30;3.10;;;;;;;;;;5039633;28;20646;-81
2024/02/02 04:26:04;;;;;;;5.27;3.40;;;;;;;;;;5038411;28;20197;-80
2024/02/02 04:28:31;;;;;;;4.67;3.73;;;;;;;;;;5038299;28;20301;-83
2024/02/02 04:30:58;;;;;;;5.73;3.10;;;;;;;;;;5043043;28;20662;-79
2024/02/02 04:33:24;;;;;;;5.50;3.43;;;;;;;;;;5023140;28;20205;-80
2024/02/02 04:35:55;;;;;;;4.10;3.30;;;;;;;;;;5046802;28;20200;-79
2024/02/02 04:38:22;;;;;;;5.70;3.53;;;;;;;;;;5040516;28;20217;-80
2024/02/02 04:41:03;;;;;;;5.83;3.30;;;;;;;;;;5016135;28;20190;-79
2024/02/02 04:43:34;;;;;;;4.50;3.37;;;;;;;;;;5007922;28;20303;-79
2024/02/02 04:46:01;;;;;;;5.20;3.23;;;;;;;;;;5024284;28;20193;-80
2024/02/02 04:48:29;;;;;;;5.33;4.27;;;;;;;;;;5022816;28;20225;-80
2024/02/02 04:50:57;;;;;;;6.80;4.03;;;;;;;;;;5043164;28;20210;-82
2024/02/02 04:53:25;;;;;;;6.53;4.70;;;;;;;;;;5048303;28;20248;-81
2024/02/02 04:55:51;;;;;;;6.80;4.37;;;;;;;;;;5058547;28;20248;-79
2024/02/02 04:58:32;;;;;;;5.57;4.50;;;;;;;;;;5065826;28;20218;-81
2024/02/02 05:01:00;;;;;;;5.10;4.30;;;;;;;;;;5057962;28;20203;-79
2024/02/02 05:03:32;;;;;;;7.57;5.37;;;;;;;;;;5053244;28;20703;-80
2024/02/02 05:06:01;;;;;;;7.37;5.23;;;;;;;;;;5069811;28;20205;-80
2024/02/02 05:08:29;;;;;;;7.10;5.53;;;;;;;;;;5057701;28;20237;-78
2024/02/02 05:10:56;;;;;;;6.97;5.47;;;;;;;;;;5023089;28;20263;-80
2024/02/02 05:13:27;;;;;;;7.70;6.10;;;;;;;;;;5057896;28;20193;-80
2024/02/02 05:15:56;;;;;;;7.67;6.33;;;;;;;;;;5040419;28;20204;-82
2024/02/02 05:18:23;;;;;;;9.07;7.07;;;;;;;;;;5057194;28;20236;-82
2024/02/02 05:20:50;;;;;;;8.67;7.77;;;;;;;;;;5057623;28;20675;-79
2024/02/02 05:23:17;;;;;;;9.50;7.83;;;;;;;;;;5059115;28;20190;-78
2024/02/02 05:25:44;;;;;;;9.37;8.40;;;;;;;;;;5054123;28;20255;-79
2024/02/02 05:28:13;;;;;;;10.37;9.27;;;;;;;;;;5041632;28;20193;-79
2024/02/02 05:30:44;;;;;;;10.73;8.97;;;;;;;;;;5048997;28;20244;-81
2024/02/02 05:33:13;;;;;;;11.17;9.97;;;;;;;;;;5047027;28;20208;-84
2024/02/02 05:35:41;;;;;;;10.60;9.50;;;;;;;;;;5054263;28;20189;-79
2024/02/02 05:38:08;;;;;;;10.67;9.57;;;;;;;;;;5062643;28;20208;-80
2024/02/02 05:40:38;;;;;;;11.40;10.20;;;;;;;;;;5054480;28;20225;-80
2024/02/02 05:43:05;;;;;;;10.53;9.53;;;;;;;;;;5066216;28;20193;-79
2024/02/02 05:45:35;;;;;;;11.13;9.97;;;;;;;;;;5057782;28;20205;-80
2024/02/02 05:48:02;;;;;;;9.97;8.93;;;;;;;;;;5057151;28;20223;-80
2024/02/02 05:50:32;;;;;;;10.90;9.77;;;;;;;;;;5057984;28;20298;-81
2024/02/02 05:53:01;;;;;;;10.93;9.70;;;;;;;;;;5045756;28;20196;-78
2024/02/02 05:55:27;;;;;;;10.17;9.17;;;;;;;;;;5046325;28;20318;-80
2024/02/02 05:58:00;;;;;;;11.17;9.97;;;;;;;;;;5056620;28;20239;-81
2024/02/02 06:00:28;;;;;;;10.47;9.17;;;;;;;;;;5032476;28;20201;-79
2024/02/02 06:02:56;;;;;;;10.80;9.33;;;;;;;;;;5055469;28;20208;-82
2024/02/02 06:05:22;;;;;;;11.30;10.10;;;;;;;;;;5037629;28;20193;-80
2024/02/02 06:07:50;;;;;;;11.17;9.60;;;;;;;;;;5028373;28;20653;-81
2024/02/02 06:10:17;;;;;;;12.23;9.77;;;;;;;;;;5047204;28;20226;-81
2024/02/02 06:12:51;;;;;;;10.53;9.30;;;;;;;;;;5053737;28;20292;-81
2024/02/02 06:15:18;;;;;;;11.17;9.57;;;;;;;;;;5053939;28;20753;-82
2024/02/02 06:17:44;;;;;;;11.20;9.77;;;;;;;;;;5061829;28;20288;-82
2024/02/02 06:20:12;;;;;;;11.03;9.27;;;;;;;;;;5054114;28;20197;-81
2024/02/02 06:22:39;;;;;;;9.73;8.73;;;;;;;;;;5046687;28;20197;-79
2024/02/02 06:25:08;;;;;;;10.03;9.07;;;;;;;;;;5042281;28;20190;-80
2024/02/02 06:27:46;;;;;;;9.67;8.67;;;;;;;;;;5044423;28;20232;-81
2024/02/02 06:30:16;;;;;;;10.20;8.87;;;;;;;;;;5063272;28;20256;-80
2024/02/02 06:32:46;;;;;;;10.07;9.07;;;;;;;;;;5051513;28;20200;-80
2024/02/02 06:35:13;;;;;;;9.53;8.63;;;;;;;;;;5027199;28;20201;-80
2024/02/02 06:37:44;;;;;;;9.87;8.87;;;;;;;;;;5049449;28;20197;-83
2024/02/02 06:40:12;;;;;;;10.67;9.27;;;;;;;;;;5045131;28;20186;-78
2024/02/02 06:42:41;;;;;;;9.70;8.67;;;;;;;;;;5049452;28;20194;-82
2024/02/02 06:45:08;;;;;;;10.10;9.10;;;;;;;;;;5053775;28;20194;-79
2024/02/02 06:47:37;;;;;;;11.07;8.63;;;;;;;;;;5053316;28;20233;-82
2024/02/02 06:50:04;;;;;;;10.10;7.97;;;;;;;;;;5035637;28;20202;-80
2024/02/02 06:52:35;;;;;;;9.97;8.23;;;;;;;;;;5053512;28;20241;-80
2024/02/02 06:55:05;;;;;;;9.07;7.80;;;;;;;;;;5053231;28;20362;-80
2024/02/02 06:57:32;;;;;;;8.40;7.50;;;;;;;;;;5053432;28;20682;-79
2024/02/02 07:00:02;;;;;;;8.70;7.80;;;;;;;;;;5053271;28;20184;-80
2024/02/02 07:02:30;;;;;;;8.80;7.23;;;;;;;;;;5053669;28;20202;-80
2024/02/02 07:05:01;;;;;;;9.17;7.17;;;;;;;;;;5051822;28;20216;-79
2024/02/02 07:07:35;;;;;;;8.17;7.23;;;;;;;;;;5037479;28;20224;-79
2024/02/02 07:10:07;;;;;;;8.27;7.10;;;;;;;;;;5037457;28;20202;-80
2024/02/02 07:12:58;;;;;;;7.50;6.70;;;;;;;;;;5037640;28;20227;-79
2024/02/02 07:15:30;;;;;;;7.03;6.33;;;;;;;;;;5041794;28;20193;-79
2024/02/02 07:17:58;;;;;;;7.50;6.70;;;;;;;;;;5055256;28;20238;-80
2024/02/02 07:20:32;;;;;;;6.90;6.20;;;;;;;;;;5056110;28;20677;-80
2024/02/02 07:23:03;;;;;;;6.60;5.63;;;;;;;;;;5055477;28;20366;-79
2024/02/02 07:25:42;;;;;;;7.53;6.30;;;;;;;;;;5052596;28;20193;-81
2024/02/02 07:28:29;;;;;;;7.67;6.10;;;;;;;;;;5062182;28;20199;-78
2024/02/02 07:30:59;;;;;;;7.57;6.47;;;;;;;;;;5038487;28;20727;-79
2024/02/02 07:33:32;;;;;;;6.20;5.40;;;;;;;;;;5051903;28;20257;-79
2024/02/02 07:36:11;;;;;;;7.03;5.87;;;;;;;;;;5049086;28;20193;-79
2024/02/02 07:38:48;;;;;;;6.53;5.73;;;;;;;;;;5059318;28;20267;-80
2024/02/02 07:41:16;;;;;;;8.63;5.90;;;;;;;;;;5052632;28;20584;-80
2024/02/02 07:43:44;;;;;;;6.37;5.60;;;;;;;;;;5057969;28;20831;-80
2024/02/02 07:46:11;;;;;;;9.73;5.80;;;;;;;;;;5049858;28;20674;-81
2024/02/02 07:48:46;;;;;;;6.63;5.43;;;;;;;;;;5046045;28;20199;-78
2024/02/02 07:51:18;;;;;;;6.40;5.23;;;;;;;;;;5048027;28;20293;-79
2024/02/02 07:53:49;;;;;;;6.10;5.07;;;;;;;;;;5058342;28;20236;-78
2024/02/02 07:56:22;;;;;;;8.27;5.23;;;;;;;;;;5049410;28;20263;-81
2024/02/02 07:58:49;;;;;;;6.30;4.93;;;;;;;;;;5047552;28;20209;-82
2024/02/02 08:01:18;;;;;;;6.60;4.90;;;;;;;;;;5038456;28;20208;-81
2024/02/02 08:03:45;;;;;;;5.30;4.50;;;;;;;;;;5049460;28;20193;-79
2024/02/02 08:06:12;;;;;;;4.80;4.20;;;;;;;;;;5051206;28;20194;-81
2024/02/02 08:08:46;;;;;;;5.30;4.27;;;;;;;;;;5018428;28;20201;-82
2024/02/02 08:11:15;;;;;;;6.20;4.60;;;;;;;;;;5035215;28;20664;-82
2024/02/02 08:13:42;;;;;;;5.67;3.73;;;;;;;;;;5055150;28;20200;-80
2024/02/02 08:16:09;;;;;;;4.87;4.03;;;;;;;;;;5050856;28;20192;-79
2024/02/02 08:18:38;;;;;;;5.33;4.00;;;;;;;;;;5037402;28;20209;-81
2024/02/02 08:21:07;;;;;;;4.60;3.63;;;;;;;;;;5000942;28;20726;-79
2024/02/02 08:23:40;;;;;;;4.17;3.40;;;;;;;;;;5050063;28;20224;-81
2024/02/02 08:26:30;;;;;;;5.13;3.30;;;;;;;;;;5031596;28;20216;-80
2024/02/02 08:28:59;;;;;;;8.30;5.43;;;;;;;;;;5034454;28;20202;-81
2024/02/02 08:31:25;;;;;;;4.70;3.40;;;;;;;;;;5046412;28;20208;-80
2024/02/02 08:33:54;;;;;;;6.53;3.90;;;;;;;;;;5045672;28;20193;-78
2024/02/02 08:36:21;;;;;;;5.73;3.57;;;;;;;;;;5054300;28;20202;-85
2024/02/02 08:38:50;;;;;;;6.53;3.10;;;;;;;;;;5034668;28;20197;-82
2024/02/02 08:41:17;;;;;;;6.23;3.87;;;;;;;;;;5051273;28;20209;-80
2024/02/02 08:43:49;;;;;;;5.73;3.03;;;;;;;;;;5051302;28;20202;-84
2024/02/02 08:46:19;;;;;;;5.37;2.80;;;;;;;;;;5032864;28;20200;-80
2024/02/02 08:48:49;;;;;;;4.93;3.03;;;;;;;;;;5035839;28;20225;-79
2024/02/02 08:51:26;;;;;;;4.40;2.83;;;;;;;;;;5051408;28;20789;-80
2024/02/02 08:54:01;;;;;;;3.40;2.70;;;;;;;;;;5050542;28;20225;-80
2024/02/02 08:56:28;;;;;;;5.00;2.77;;;;;;;;;;5017001;28;20194;-81
2024/02/02 08:58:56;;;;;;;5.93;2.30;;;;;;;;;;5049939;28;20213;-79
2024/02/02 09:01:39;;;;;;;4.77;2.40;;;;;;;;;;5054554;28;20228;-81
2024/02/02 09:04:27;;;;;;;4.30;2.10;;;;;;;;;;5053319;28;20194;-79
2024/02/02 09:07:01;;;;;;;5.13;2.67;;;;;;;;;;5037304;28;20221;-78
2024/02/02 09:09:28;;;;;;;4.33;2.30;;;;;;;;;;5053299;28;20257;-80
2024/02/02 09:11:56;;;;;;;5.70;2.40;;;;;;;;;;5043561;28;20193;-80
2024/02/02 09:14:24;;;;;;;4.50;2.10;;;;;;;;;;5052980;28;20193;-80
2024/02/02 09:16:53;;;;;;;5.43;2.17;;;;;;;;;;5056534;28;20216;-80
2024/02/02 09:19:27;;;;;;;4.97;2.07;;;;;;;;;;5036579;28;20332;-80
2024/02/02 09:22:04;;;;;;;7.73;2.87;;;;;;;;;;5050434;28;20280;-80
2024/02/02 09:24:36;;;;;;;3.73;2.20;;;;;;;;;;5032543;28;20204;-79
2024/02/02 09:27:03;;;;;;;3.57;2.20;;;;;;;;;;5056060;28;20239;-79
2024/02/02 09:29:34;;;;;;;4.90;2.00;;;;;;;;;;5060208;28;20259;-79
2024/02/02 09:32:01;;;;;;;5.47;2.00;;;;;;;;;;5051524;28;20201;-78
2024/02/02 09:34:29;;;;;;;4.77;1.90;;;;;;;;;;5057547;28;20887;-79
2024/02/02 09:37:04;;;;;;;3.67;2.00;;;;;;;;;;5051277;28;20832;-79
2024/02/02 09:39:50;;;;;;;4.70;1.90;;;;;;;;;;5034119;28;20224;-80
2024/02/02 09:42:18;;;;;;;4.30;1.83;;;;;;;;;;5041832;28;20186;-79
2024/02/02 09:44:46;;;;;;;4.33;1.80;;;;;;;;;;5036361;28;20193;-81
2024/02/02 09:47:48;;;;;;;3.37;1.83;;;;;;;;;;5047696;28;20193;-80
2024/02/02 09:50:36;;;;;;;3.70;1.70;;;;;;;;;;5009700;28;20237;-81
2024/02/02 09:53:10;;;;;;;4.13;1.90;;;;;;;;;;5032295;28;20201;-81
2024/02/02 09:55:36;;;;;;;5.17;1.67;;;;;;;;;;5026395;28;20692;-81
2024/02/02 09:58:25;;;;;;;3.10;1.33;;;;;;;;;;5015162;28;20313;-78
2024/02/02 10:01:05;;;;;;;3.03;1.90;;;;;;;;;;5032938;28;20202;-80
2024/02/02 10:03:50;;;;;;;4.80;1.73;;;;;;;;;;5033626;28;20226;-79
2024/02/02 10:06:30;;;;;;;6.37;1.93;;;;;;;;;;5015924;28;20194;-79
2024/02/02 10:09:18;;;;;;;4.40;1.70;;;;;;;;;;5017130;28;20248;-80
2024/02/02 10:11:57;;;;;;;3.93;1.60;;;;;;;;;;5020376;28;20221;-81
2024/02/02 10:14:43;;;;;;;4.37;1.63;;;;;;;;;;5032055;28;20198;-80
2024/02/02 10:17:29;;;;;;;3.47;1.50;;;;;;;;;;5031326;28;20214;-78
2024/02/02 10:19:57;;;;;;;5.87;2.03;;;;;;;;;;5042939;28;20206;-81
2024/02/02 10:22:33;;;;;;;5.13;1.80;;;;;;;;;;5031495;28;20190;-80
2024/02/02 10:25:14;;;;;;;3.10;1.40;;;;;;;;;;5016249;28;20264;-78
2024/02/02 10:27:55;;;;;;;2.77;1.50;;;;;;;;;;5027119;28;20178;-80
2024/02/02 10:30:31;;;;;;;5.07;1.40;;;;;;;;;;5033972;28;20210;-80
2024/02/02 10:33:11;;;;;;;4.50;1.63;;;;;;;;;;5032903;28;20277;-79
2024/02/02 10:35:39;;;;;;;4.20;1.43;;;;;;;;;;5031755;28;20771;-79
2024/02/02 10:38:29;;;;;;;3.43;1.57;;;;;;;;;;5015942;28;20190;-79
2024/02/02 10:41:15;;;;;;;4.30;1.40;;;;;;;;;;4999518;28;20202;-80
2024/02/02 10:44:01;;;;;;;4.47;1.60;;;;;;;;;;5032818;28;20225;-81
2024/02/02 10:46:28;;;;;;;3.90;1.87;;;;;;;;;;5040796;28;21382;-80
2024/02/02 10:49:15;;;;;;;3.17;1.30;;;;;;;;;;5016213;28;20268;-81
2024/02/02 10:51:57;;;;;;;4.53;1.70;;;;;;;;;;5008987;28;20687;-80
2024/02/02 10:54:33;;;;;;;3.20;1.50;;;;;;;;;;5026641;28;20312;-80
2024/02/02 10:57:18;;;;;;;4.00;1.40;;;;;;;;;;5041785;28;20189;-78
2024/02/02 10:59:58;;;;;;;4.13;1.50;;;;;;;;;;5048399;28;20194;-79
2024/02/02 11:02:38;;;;;;;3.10;1.50;;;;;;;;;;5056525;28;20267;-79
2024/02/02 11:05:09;;;;;;;4.37;1.27;;;;;;;;;;5031730;28;20616;-80
2024/02/02 11:07:42;;;;;;;2.80;1.40;;;;;;;;;;5035446;28;20205;-79
2024/02/02 11:10:16;;;;;;;5.60;1.73;;;;;;;;;;5051753;28;20213;-80
2024/02/02 11:12:45;;;;;;;2.43;1.33;;;;;;;;;;5051963;28;20221;-78
2024/02/02 11:15:17;;;;;;;3.47;1.70;;;;;;;;;;5053028;28;20225;-78
2024/02/02 11:17:58;;;;;;;4.63;1.77;;;;;;;;;;5054184;28;20678;-81
2024/02/02 11:20:41;;;;;;;4.57;1.80;;;;;;;;;;5049950;28;20197;-79
2024/02/02 11:23:08;;;;;;;4.40;1.70;;;;;;;;;;5047757;28;20197;-79
2024/02/02 11:25:40;;;;;;;2.77;1.70;;;;;;;;;;5050928;28;20762;-78
2024/02/02 11:28:13;;;;;;;3.43;1.63;;;;;;;;;;5051742;28;20276;-79
2024/02/02 11:31:04;;;;;;;3.50;1.63;;;;;;;;;;5033382;28;20222;-81
2024/02/02 11:33:33;;;;;;;3.90;1.50;;;;;;;;;;5040554;28;20284;-82
2024/02/02 11:36:00;;;;;;;2.40;1.40;;;;;;;;;;5055218;28;20498;-78
2024/02/02 11:38:46;;;;;;;3.83;1.77;;;;;;;;;;5052564;28;20196;-79
2024/02/02 11:41:15;;;;;;;3.60;1.53;;;;;;;;;;5042750;28;20193;-81
2024/02/02 11:43:43;;;;;;;5.10;1.70;;;;;;;;;;5051670;28;20186;-80
2024/02/02 11:46:12;;;;;;;4.20;1.80;;;;;;;;;;5041246;28;20205;-80
2024/02/02 11:48:40;;;;;;;4.07;1.90;;;;;;;;;;5045003;28;20243;-79
2024/02/02 11:51:09;;;;;;;3.37;1.70;;;;;;;;;;5044492;28;20212;-79
2024/02/02 11:53:55;;;;;;;3.77;1.77;;;;;;;;;;5046611;28;20259;-79
2024/02/02 11:56:29;;;;;;;3.90;1.80;;;;;;;;;;5034346;28;20747;-79
2024/02/02 11:59:15;;;;;;;3.33;1.80;;;;;;;;;;5033576;28;20320;-78
2024/02/02 12:01:48;;;;;;;4.07;1.80;;;;;;;;;;5042069;28;20207;-78
2024/02/02 12:04:29;;;;;;;4.57;2.00;;;;;;;;;;5051279;28;20204;-78
2024/02/02 12:07:17;;;;;;;2.90;1.90;;;;;;;;;;5036031;28;20248;-79
2024/02/02 12:09:50;;;;;;;3.43;1.97;;;;;;;;;;5030750;28;20197;-79
2024/02/02 12:12:21;;;;;;;5.23;2.20;;;;;;;;;;5056525;28;20315;-80
2024/02/02 12:14:51;;;;;;;5.43;2.80;;;;;;;;;;5054177;28;20192;-79
2024/02/02 12:17:18;;;;;;;2.77;2.10;;;;;;;;;;5057797;28;20185;-79
2024/02/02 12:19:46;;;;;;;3.63;1.97;;;;;;;;;;5043044;28;20209;-79
2024/02/02 12:22:16;;;;;;;3.50;2.00;;;;;;;;;;5050941;28;20197;-79
2024/02/02 12:24:45;;;;;;;3.47;2.37;;;;;;;;;;5019786;28;20193;-81
2024/02/02 12:27:13;;;;;;;4.23;2.20;;;;;;;;;;5051402;28;20193;-78
2024/02/02 12:29:41;;;;;;;4.67;2.37;;;;;;;;;;5034028;28;20194;-81
2024/02/02 12:32:12;;;;;;;4.60;2.60;;;;;;;;;;5051301;28;20249;-79
2024/02/02 12:34:44;;;;;;;5.70;2.60;;;;;;;;;;5037412;28;20201;-78
2024/02/02 12:37:15;;;;;;;3.40;2.30;;;;;;;;;;5043039;28;20276;-80
2024/02/02 12:39:45;;;;;;;5.27;2.60;;;;;;;;;;5029810;28;20269;-78
2024/02/02 12:42:12;;;;;;;4.90;3.03;;;;;;;;;;5039963;28;20236;-80
2024/02/02 12:44:41;;;;;;;5.63;2.80;;;;;;;;;;5055721;28;20655;-80
2024/02/02 12:47:07;;;;;;;3.97;2.60;;;;;;;;;;5058422;28;20289;-79
2024/02/02 12:49:38;;;;;;;3.20;2.27;;;;;;;;;;5039331;28;20186;-78
2024/02/02 12:52:06;;;;;;;3.53;2.40;;;;;;;;;;5054727;28;20213;-81
2024/02/02 12:54:40;;;;;;;3.00;2.40;;;;;;;;;;5042825;28;20233;-79
2024/02/02 12:57:33;;;;;;;3.80;2.67;;;;;;;;;;5015200;28;20206;-79
2024/02/02 13:00:02;;;;;;;3.87;2.90;;;;;;;;;;5036554;28;20198;-78
2024/02/02 13:02:29;;;;;;;3.70;2.50;;;;;;;;;;5018154;28;20755;-80
2024/02/02 13:05:00;;;;;;;5.00;2.47;;;;;;;;;;5017454;28;20198;-80
2024/02/02 13:07:33;;;;;;;3.57;2.50;;;;;;;;;;5018912;28;20614;-79
2024/02/02 13:10:07;;;;;;;3.63;2.83;;;;;;;;;;5039380;28;20197;-81
2024/02/02 13:12:39;;;;;;;3.43;2.50;;;;;;;;;;5036967;28;20213;-77
2024/02/02 13:15:07;;;;;;;3.53;2.50;;;;;;;;;;5032963;28;20208;-78
2024/02/02 13:17:37;;;;;;;3.70;2.60;;;;;;;;;;5002915;28;20214;-80
2024/02/02 13:20:14;;;;;;;2.90;2.10;;;;;;;;;;5016452;28;20292;-78
2024/02/02 13:22:50;;;;;;;3.60;2.10;;;;;;;;;;5033257;28;20194;-79
2024/02/02 13:25:24;;;;;;;2.40;2.07;;;;;;;;;;5014165;28;20195;-78
2024/02/02 13:27:56;;;;;;;3.73;2.37;;;;;;;;;;5029437;28;20256;-79
2024/02/02 13:30:55;;;;;;;3.73;2.47;;;;;;;;;;5034421;28;20229;-78
2024/02/02 13:33:26;;;;;;;3.37;2.10;;;;;;;;;;5035969;28;20650;-78
2024/02/02 13:35:53;;;;;;;4.07;2.50;;;;;;;;;;5028285;28;20663;-80
2024/02/02 13:38:21;;;;;;;3.63;2.50;;;;;;;;;;4998370;28;20202;-78
2024/02/02 13:40:48;;;;;;;4.47;2.50;;;;;;;;;;5017932;28;20202;-78
2024/02/02 13:43:15;;;;;;;4.67;2.63;;;;;;;;;;5028973;28;20198;-77
2024/02/02 13:45:46;;;;;;;4.07;2.63;;;;;;;;;;5012769;28;20206;-79
2024/02/02 13:48:16;;;;;;;4.30;2.40;;;;;;;;;;5019333;28;20693;-79
2024/02/02 13:50:52;;;;;;;3.43;2.47;;;;;;;;;;5025245;28;20214;-81
2024/02/02 13:53:22;;;;;;;3.50;2.33;;;;;;;;;;5034841;28;20195;-78
2024/02/02 13:55:52;;;;;;;3.70;2.23;;;;;;;;;;5051150;28;20228;-81
2024/02/02 13:58:25;;;;;;;3.67;2.07;;;;;;;;;;5050154;28;20756;-79
2024/02/02 14:00:55;;;;;;;4.87;2.40;;;;;;;;;;5050206;28;20202;-79
2024/02/02 14:03:23;;;;;;;6.07;2.63;;;;;;;;;;5059991;28;20209;-79
2024/02/02 14:05:49;;;;;;;3.97;2.53;;;;;;;;;;5037321;28;20202;-82
2024/02/02 14:08:20;;;;;;;4.27;2.13;;;;;;;;;;5019709;28;20201;-78
2024/02/02 14:10:47;;;;;;;3.77;2.10;;;;;;;;;;5055313;28;20219;-80
2024/02/02 14:13:21;;;;;;;3.27;1.70;;;;;;;;;;5035534;28;20204;-78
2024/02/02 14:15:55;;;;;;;5.43;2.13;;;;;;;;;;5052243;28;20292;-81
2024/02/02 14:18:23;;;;;;;3.67;1.93;;;;;;;;;;5039655;28;20208;-81
2024/02/02 14:20:51;;;;;;;2.90;1.90;;;;;;;;;;5063719;28;20200;-80
2024/02/02 14:23:27;;;;;;;3.00;1.77;;;;;;;;;;5060218;28;20192;-79
2024/02/02 14:26:04;;;;;;;3.97;2.47;;;;;;;;;;5035614;28;20214;-79
2024/02/02 14:28:31;;;;;;;4.73;2.10;;;;;;;;;;5061720;28;20205;-79
2024/02/02 14:31:02;;;;;;;3.77;2.37;;;;;;;;;;5036415;28;20239;-79
2024/02/02 14:33:34;;;;;;;4.67;2.40;;;;;;;;;;5035666;28;20225;-80
2024/02/02 14:36:07;;;;;;;7.57;4.23;;;;;;;;;;5023819;28;20201;-79
2024/02/02 14:38:33;;;;;;;6.23;3.97;;;;;;;;;;5041903;28;20198;-79
2024/02/02 14:41:00;;;;;;;9.27;5.53;;;;;;;;;;5040735;28;20676;-79
2024/02/02 14:43:27;;;;;;;5.13;3.10;;;;;;;;;;5038177;28;20201;-82
2024/02/02 14:45:58;;;;;;;3.53;2.70;;;;;;;;;;5053710;28;20198;-79
2024/02/02 14:48:28;;;;;;;4.87;2.40;;;;;;;;;;5054456;28;20197;-78
2024/02/02 14:50:58;;;;;;;4.77;2.33;;;;;;;;;;5052767;28;20701;-79
2024/02/02 14:53:44;;;;;;;4.33;2.40;;;;;;;;;;5045219;28;20232;-79
2024/02/02 14:56:11;;;;;;;3.17;2.40;;;;;;;;;;5057706;28;20757;-82
2024/02/02 14:59:09;;;;;;;4.87;2.60;;;;;;;;;;5031504;28;20218;-78
2024/02/02 15:01:43;;;;;;;2.93;2.50;;;;;;;;;;5052416;28;20190;-80
2024/02/02 15:04:12;;;;;;;4.17;2.77;;;;;;;;;;5030768;28;20190;-79
2024/02/02 15:06:39;;;;;;;3.77;2.67;;;;;;;;;;5056494;28;20217;-80